sensor_id;sensor_type;location;lat;lon;timestamp;P1;durP1;ratioP1;P2;durP2;ratioP2
78382;SDS011;67668;52.294;4.692;2023-08-31T00:00:00;2.42;;;1.10;;
78382;SDS011;67668;52.294;4.692;2023-08-31T00:02:26;3.28;;;1.10;;
78382;SDS011;67668;52.294;4.692;2023-08-31T00:04:52;4.60;;;0.93;;
78382;SDS011;67668;52.294;4.692;2023-08-31T00:07:19;1.92;;;1.10;;
78382;SDS011;67668;52.294;4.692;2023-08-31T00:09:46;2.63;;;1.10;;
78382;SDS011;67668;52.294;4.692;2023-08-31T00:12:12;1.90;;;0.75;;
78382;SDS011;67668;52.294;4.692;2023-08-31T00:14:38;1.70;;;0.75;;
78382;SDS011;67668;52.294;4.692;2023-08-31T00:17:04;2.83;;;0.80;;
78382;SDS011;67668;52.294;4.692;2023-08-31T00:19:30;2.53;;;0.80;;
78382;SDS011;67668;52.294;4.692;2023-08-31T00:21:55;2.67;;;0.80;;
78382;SDS011;67668;52.294;4.692;2023-08-31T00:24:21;1.65;;;1.10;;
78382;SDS011;67668;52.294;4.692;2023-08-31T00:26:47;1.92;;;0.47;;
78382;SDS011;67668;52.294;4.692;2023-08-31T00:29:16;2.80;;;0.50;;
78382;SDS011;67668;52.294;4.692;2023-08-31T00:31:41;0.60;;;0.30;;
78382;SDS011;67668;52.294;4.692;2023-08-31T00:34:07;1.15;;;0.40;;
78382;SDS011;67668;52.294;4.692;2023-08-31T00:36:33;1.35;;;0.30;;
78382;SDS011;67668;52.294;4.692;2023-08-31T00:39:02;3.40;;;0.63;;
78382;SDS011;67668;52.294;4.692;2023-08-31T00:41:30;1.48;;;0.38;;
78382;SDS011;67668;52.294;4.692;2023-08-31T00:43:56;4.05;;;0.57;;
78382;SDS011;67668;52.294;4.692;2023-08-31T00:46:21;4.15;;;0.50;;
78382;SDS011;67668;52.294;4.692;2023-08-31T00:48:47;1.70;;;0.50;;
78382;SDS011;67668;52.294;4.692;2023-08-31T00:51:12;4.27;;;0.70;;
78382;SDS011;67668;52.294;4.692;2023-08-31T00:53:38;3.88;;;0.70;;
78382;SDS011;67668;52.294;4.692;2023-08-31T00:56:04;2.65;;;0.50;;
78382;SDS011;67668;52.294;4.692;2023-08-31T00:58:30;5.25;;;0.70;;
78382;SDS011;67668;52.294;4.692;2023-08-31T01:00:58;3.55;;;0.45;;
78382;SDS011;67668;52.294;4.692;2023-08-31T01:03:47;2.78;;;0.52;;
78382;SDS011;67668;52.294;4.692;2023-08-31T01:06:24;5.20;;;0.63;;
78382;SDS011;67668;52.294;4.692;2023-08-31T01:09:14;6.00;;;0.40;;
78382;SDS011;67668;52.294;4.692;2023-08-31T01:12:25;5.78;;;0.70;;
78382;SDS011;67668;52.294;4.692;2023-08-31T01:15:05;2.80;;;0.50;;
78382;SDS011;67668;52.294;4.692;2023-08-31T01:17:33;3.92;;;0.82;;
78382;SDS011;67668;52.294;4.692;2023-08-31T01:20:07;3.65;;;0.65;;
78382;SDS011;67668;52.294;4.692;2023-08-31T01:22:47;6.57;;;1.45;;
78382;SDS011;67668;52.294;4.692;2023-08-31T01:25:20;6.32;;;0.57;;
78382;SDS011;67668;52.294;4.692;2023-08-31T01:27:47;3.85;;;0.98;;
78382;SDS011;67668;52.294;4.692;2023-08-31T01:30:13;5.75;;;0.70;;
78382;SDS011;67668;52.294;4.692;2023-08-31T01:32:42;4.07;;;0.57;;
78382;SDS011;67668;52.294;4.692;2023-08-31T01:35:10;3.75;;;0.70;;
78382;SDS011;67668;52.294;4.692;2023-08-31T01:40:16;6.40;;;0.75;;
78382;SDS011;67668;52.294;4.692;2023-08-31T01:42:45;5.78;;;1.08;;
78382;SDS011;67668;52.294;4.692;2023-08-31T01:45:13;2.88;;;0.82;;
78382;SDS011;67668;52.294;4.692;2023-08-31T01:47:43;4.40;;;0.75;;
78382;SDS011;67668;52.294;4.692;2023-08-31T01:50:09;6.68;;;0.73;;
78382;SDS011;67668;52.294;4.692;2023-08-31T01:52:35;5.87;;;0.77;;
78382;SDS011;67668;52.294;4.692;2023-08-31T01:55:01;1.45;;;0.47;;
78382;SDS011;67668;52.294;4.692;2023-08-31T01:57:26;3.60;;;1.15;;
78382;SDS011;67668;52.294;4.692;2023-08-31T01:59:51;5.00;;;0.82;;
78382;SDS011;67668;52.294;4.692;2023-08-31T02:02:17;2.53;;;0.52;;
78382;SDS011;67668;52.294;4.692;2023-08-31T02:04:43;3.88;;;0.60;;
78382;SDS011;67668;52.294;4.692;2023-08-31T02:07:08;3.10;;;0.40;;
78382;SDS011;67668;52.294;4.692;2023-08-31T02:09:34;3.63;;;0.80;;
78382;SDS011;67668;52.294;4.692;2023-08-31T02:11:59;6.45;;;0.93;;
78382;SDS011;67668;52.294;4.692;2023-08-31T02:14:24;3.05;;;0.80;;
78382;SDS011;67668;52.294;4.692;2023-08-31T02:16:50;2.08;;;0.68;;
78382;SDS011;67668;52.294;4.692;2023-08-31T02:19:16;7.07;;;1.25;;
78382;SDS011;67668;52.294;4.692;2023-08-31T02:21:42;3.33;;;0.60;;
78382;SDS011;67668;52.294;4.692;2023-08-31T02:24:07;4.15;;;0.60;;
78382;SDS011;67668;52.294;4.692;2023-08-31T02:26:34;3.90;;;0.68;;
78382;SDS011;67668;52.294;4.692;2023-08-31T02:29:01;5.70;;;0.65;;
78382;SDS011;67668;52.294;4.692;2023-08-31T02:31:27;5.15;;;0.80;;
78382;SDS011;67668;52.294;4.692;2023-08-31T02:33:53;5.70;;;1.13;;
78382;SDS011;67668;52.294;4.692;2023-08-31T02:36:18;4.00;;;0.70;;
78382;SDS011;67668;52.294;4.692;2023-08-31T02:38:45;5.63;;;1.02;;
78382;SDS011;67668;52.294;4.692;2023-08-31T02:41:12;3.97;;;0.57;;
78382;SDS011;67668;52.294;4.692;2023-08-31T02:43:38;5.50;;;0.80;;
78382;SDS011;67668;52.294;4.692;2023-08-31T02:46:04;3.70;;;0.60;;
78382;SDS011;67668;52.294;4.692;2023-08-31T02:48:30;2.13;;;0.35;;
78382;SDS011;67668;52.294;4.692;2023-08-31T02:50:57;8.90;;;1.58;;
78382;SDS011;67668;52.294;4.692;2023-08-31T02:53:26;3.20;;;0.55;;
78382;SDS011;67668;52.294;4.692;2023-08-31T02:55:57;3.55;;;0.65;;
78382;SDS011;67668;52.294;4.692;2023-08-31T02:58:22;6.03;;;1.00;;
78382;SDS011;67668;52.294;4.692;2023-08-31T03:00:49;6.28;;;0.77;;
78382;SDS011;67668;52.294;4.692;2023-08-31T03:03:15;4.13;;;0.60;;
78382;SDS011;67668;52.294;4.692;2023-08-31T03:05:41;4.78;;;0.95;;
78382;SDS011;67668;52.294;4.692;2023-08-31T03:08:06;4.78;;;0.90;;
78382;SDS011;67668;52.294;4.692;2023-08-31T03:10:32;7.83;;;1.27;;
78382;SDS011;67668;52.294;4.692;2023-08-31T03:12:57;8.60;;;0.80;;
78382;SDS011;67668;52.294;4.692;2023-08-31T03:15:22;5.05;;;1.02;;
78382;SDS011;67668;52.294;4.692;2023-08-31T03:17:49;7.35;;;0.85;;
78382;SDS011;67668;52.294;4.692;2023-08-31T03:20:14;6.85;;;0.88;;
78382;SDS011;67668;52.294;4.692;2023-08-31T03:22:40;5.90;;;0.75;;
78382;SDS011;67668;52.294;4.692;2023-08-31T03:25:06;8.63;;;2.03;;
78382;SDS011;67668;52.294;4.692;2023-08-31T03:27:31;3.55;;;0.57;;
78382;SDS011;67668;52.294;4.692;2023-08-31T03:29:57;2.63;;;0.37;;
78382;SDS011;67668;52.294;4.692;2023-08-31T03:32:22;4.30;;;0.60;;
78382;SDS011;67668;52.294;4.692;2023-08-31T03:34:48;7.25;;;0.60;;
78382;SDS011;67668;52.294;4.692;2023-08-31T03:37:13;3.67;;;0.50;;
78382;SDS011;67668;52.294;4.692;2023-08-31T03:39:39;2.88;;;0.40;;
78382;SDS011;67668;52.294;4.692;2023-08-31T03:42:06;0.70;;;0.40;;
78382;SDS011;67668;52.294;4.692;2023-08-31T03:44:31;3.55;;;0.43;;
78382;SDS011;67668;52.294;4.692;2023-08-31T03:46:57;3.95;;;0.38;;
78382;SDS011;67668;52.294;4.692;2023-08-31T03:49:22;7.55;;;0.70;;
78382;SDS011;67668;52.294;4.692;2023-08-31T03:51:48;1.63;;;0.60;;
78382;SDS011;67668;52.294;4.692;2023-08-31T03:54:13;6.03;;;0.90;;
78382;SDS011;67668;52.294;4.692;2023-08-31T03:56:39;1.95;;;0.40;;
78382;SDS011;67668;52.294;4.692;2023-08-31T03:59:06;4.75;;;0.40;;
78382;SDS011;67668;52.294;4.692;2023-08-31T04:01:31;4.40;;;0.60;;
78382;SDS011;67668;52.294;4.692;2023-08-31T04:03:57;1.85;;;0.30;;
78382;SDS011;67668;52.294;4.692;2023-08-31T04:06:22;4.28;;;0.52;;
78382;SDS011;67668;52.294;4.692;2023-08-31T04:08:48;3.23;;;0.70;;
78382;SDS011;67668;52.294;4.692;2023-08-31T04:11:13;3.33;;;0.80;;
78382;SDS011;67668;52.294;4.692;2023-08-31T04:13:38;3.58;;;0.50;;
78382;SDS011;67668;52.294;4.692;2023-08-31T04:16:04;3.58;;;0.57;;
78382;SDS011;67668;52.294;4.692;2023-08-31T04:18:31;2.95;;;0.30;;
78382;SDS011;67668;52.294;4.692;2023-08-31T04:20:56;2.33;;;0.40;;
78382;SDS011;67668;52.294;4.692;2023-08-31T04:23:24;2.20;;;0.63;;
78382;SDS011;67668;52.294;4.692;2023-08-31T04:25:49;1.75;;;0.38;;
78382;SDS011;67668;52.294;4.692;2023-08-31T04:28:16;3.17;;;0.43;;
78382;SDS011;67668;52.294;4.692;2023-08-31T04:30:42;2.58;;;0.82;;
78382;SDS011;67668;52.294;4.692;2023-08-31T04:33:08;3.70;;;0.43;;
78382;SDS011;67668;52.294;4.692;2023-08-31T04:35:33;1.80;;;0.40;;
78382;SDS011;67668;52.294;4.692;2023-08-31T04:37:59;3.55;;;0.50;;
78382;SDS011;67668;52.294;4.692;2023-08-31T04:40:25;2.53;;;0.70;;
78382;SDS011;67668;52.294;4.692;2023-08-31T04:42:50;2.40;;;0.30;;
78382;SDS011;67668;52.294;4.692;2023-08-31T04:45:16;5.45;;;0.80;;
78382;SDS011;67668;52.294;4.692;2023-08-31T04:47:43;4.70;;;0.43;;
78382;SDS011;67668;52.294;4.692;2023-08-31T04:50:09;3.58;;;0.55;;
78382;SDS011;67668;52.294;4.692;2023-08-31T04:52:34;3.97;;;0.70;;
78382;SDS011;67668;52.294;4.692;2023-08-31T04:55:00;5.30;;;0.63;;
78382;SDS011;67668;52.294;4.692;2023-08-31T04:57:26;6.07;;;0.70;;
78382;SDS011;67668;52.294;4.692;2023-08-31T04:59:52;2.33;;;0.22;;
78382;SDS011;67668;52.294;4.692;2023-08-31T05:02:17;1.58;;;0.30;;
78382;SDS011;67668;52.294;4.692;2023-08-31T05:04:44;1.20;;;0.50;;
78382;SDS011;67668;52.294;4.692;2023-08-31T05:07:10;4.78;;;0.35;;
78382;SDS011;67668;52.294;4.692;2023-08-31T05:09:35;2.63;;;0.43;;
78382;SDS011;67668;52.294;4.692;2023-08-31T05:12:01;2.13;;;0.22;;
78382;SDS011;67668;52.294;4.692;2023-08-31T05:14:29;0.32;;;0.10;;
78382;SDS011;67668;52.294;4.692;2023-08-31T05:16:55;3.22;;;0.40;;
78382;SDS011;67668;52.294;4.692;2023-08-31T05:19:22;2.90;;;0.17;;
78382;SDS011;67668;52.294;4.692;2023-08-31T05:21:47;1.77;;;0.40;;
78382;SDS011;67668;52.294;4.692;2023-08-31T05:24:13;1.30;;;0.73;;
78382;SDS011;67668;52.294;4.692;2023-08-31T05:26:41;3.77;;;0.30;;
78382;SDS011;67668;52.294;4.692;2023-08-31T05:29:06;1.63;;;0.40;;
78382;SDS011;67668;52.294;4.692;2023-08-31T05:31:32;1.77;;;0.43;;
78382;SDS011;67668;52.294;4.692;2023-08-31T05:33:57;2.03;;;0.40;;
78382;SDS011;67668;52.294;4.692;2023-08-31T05:36:23;2.72;;;0.35;;
78382;SDS011;67668;52.294;4.692;2023-08-31T05:38:48;2.80;;;0.30;;
78382;SDS011;67668;52.294;4.692;2023-08-31T05:41:16;3.95;;;0.50;;
78382;SDS011;67668;52.294;4.692;2023-08-31T05:43:41;4.78;;;0.50;;
78382;SDS011;67668;52.294;4.692;2023-08-31T05:46:07;3.70;;;0.80;;
78382;SDS011;67668;52.294;4.692;2023-08-31T05:48:33;3.38;;;0.40;;
78382;SDS011;67668;52.294;4.692;2023-08-31T05:50:59;1.92;;;0.43;;
78382;SDS011;67668;52.294;4.692;2023-08-31T05:53:24;2.93;;;0.70;;
78382;SDS011;67668;52.294;4.692;2023-08-31T05:55:50;2.72;;;0.43;;
78382;SDS011;67668;52.294;4.692;2023-08-31T05:58:15;2.75;;;0.40;;
78382;SDS011;67668;52.294;4.692;2023-08-31T06:00:41;2.72;;;0.63;;
78382;SDS011;67668;52.294;4.692;2023-08-31T06:03:06;3.95;;;0.73;;
78382;SDS011;67668;52.294;4.692;2023-08-31T06:05:32;6.50;;;0.68;;
78382;SDS011;67668;52.294;4.692;2023-08-31T06:07:59;4.90;;;0.80;;
78382;SDS011;67668;52.294;4.692;2023-08-31T06:10:24;5.40;;;0.70;;
78382;SDS011;67668;52.294;4.692;2023-08-31T06:12:50;5.10;;;0.43;;
78382;SDS011;67668;52.294;4.692;2023-08-31T06:15:16;3.13;;;0.52;;
78382;SDS011;67668;52.294;4.692;2023-08-31T06:17:42;6.10;;;0.63;;
78382;SDS011;67668;52.294;4.692;2023-08-31T06:20:08;5.50;;;0.80;;
78382;SDS011;67668;52.294;4.692;2023-08-31T06:22:34;4.68;;;0.70;;
78382;SDS011;67668;52.294;4.692;2023-08-31T06:25:00;5.05;;;0.40;;
78382;SDS011;67668;52.294;4.692;2023-08-31T06:27:26;6.30;;;0.73;;
78382;SDS011;67668;52.294;4.692;2023-08-31T06:29:51;3.50;;;0.90;;
78382;SDS011;67668;52.294;4.692;2023-08-31T06:32:17;1.83;;;0.57;;
78382;SDS011;67668;52.294;4.692;2023-08-31T06:34:43;10.07;;;1.35;;
78382;SDS011;67668;52.294;4.692;2023-08-31T06:37:09;8.85;;;0.90;;
78382;SDS011;67668;52.294;4.692;2023-08-31T06:39:35;4.93;;;0.95;;
78382;SDS011;67668;52.294;4.692;2023-08-31T06:42:01;4.53;;;0.45;;
78382;SDS011;67668;52.294;4.692;2023-08-31T06:44:28;4.80;;;0.77;;
78382;SDS011;67668;52.294;4.692;2023-08-31T06:46:54;3.78;;;0.80;;
78382;SDS011;67668;52.294;4.692;2023-08-31T06:49:21;6.25;;;0.75;;
78382;SDS011;67668;52.294;4.692;2023-08-31T06:51:47;5.20;;;0.80;;
78382;SDS011;67668;52.294;4.692;2023-08-31T06:54:14;2.85;;;1.05;;
78382;SDS011;67668;52.294;4.692;2023-08-31T06:56:40;7.38;;;0.80;;
78382;SDS011;67668;52.294;4.692;2023-08-31T06:59:05;4.45;;;0.75;;
78382;SDS011;67668;52.294;4.692;2023-08-31T07:01:31;6.70;;;1.05;;
78382;SDS011;67668;52.294;4.692;2023-08-31T07:03:57;4.45;;;0.88;;
78382;SDS011;67668;52.294;4.692;2023-08-31T07:06:24;3.95;;;0.80;;
78382;SDS011;67668;52.294;4.692;2023-08-31T07:08:49;7.22;;;1.25;;
78382;SDS011;67668;52.294;4.692;2023-08-31T07:11:15;6.82;;;1.50;;
78382;SDS011;67668;52.294;4.692;2023-08-31T07:13:42;8.52;;;1.00;;
78382;SDS011;67668;52.294;4.692;2023-08-31T07:16:07;3.72;;;1.00;;
78382;SDS011;67668;52.294;4.692;2023-08-31T07:18:33;7.25;;;1.38;;
78382;SDS011;67668;52.294;4.692;2023-08-31T07:20:58;10.13;;;1.38;;
78382;SDS011;67668;52.294;4.692;2023-08-31T07:23:23;6.27;;;1.07;;
78382;SDS011;67668;52.294;4.692;2023-08-31T07:25:49;3.65;;;0.80;;
78382;SDS011;67668;52.294;4.692;2023-08-31T07:28:14;7.45;;;0.80;;
78382;SDS011;67668;52.294;4.692;2023-08-31T07:30:40;5.80;;;1.02;;
78382;SDS011;67668;52.294;4.692;2023-08-31T07:33:05;9.20;;;2.13;;
78382;SDS011;67668;52.294;4.692;2023-08-31T07:35:31;5.10;;;1.10;;
78382;SDS011;67668;52.294;4.692;2023-08-31T07:37:57;6.73;;;1.40;;
78382;SDS011;67668;52.294;4.692;2023-08-31T07:40:22;5.53;;;1.13;;
78382;SDS011;67668;52.294;4.692;2023-08-31T07:42:48;6.10;;;1.00;;
78382;SDS011;67668;52.294;4.692;2023-08-31T07:45:16;7.88;;;1.40;;
78382;SDS011;67668;52.294;4.692;2023-08-31T07:47:41;3.47;;;0.65;;
78382;SDS011;67668;52.294;4.692;2023-08-31T07:50:07;3.80;;;0.90;;
78382;SDS011;67668;52.294;4.692;2023-08-31T07:52:32;7.97;;;1.20;;
78382;SDS011;67668;52.294;4.692;2023-08-31T07:54:58;7.10;;;1.37;;
78382;SDS011;67668;52.294;4.692;2023-08-31T07:57:23;4.57;;;1.33;;
78382;SDS011;67668;52.294;4.692;2023-08-31T07:59:49;5.32;;;0.75;;
78382;SDS011;67668;52.294;4.692;2023-08-31T08:02:14;9.33;;;1.10;;
78382;SDS011;67668;52.294;4.692;2023-08-31T08:04:41;7.70;;;0.90;;
78382;SDS011;67668;52.294;4.692;2023-08-31T08:07:06;5.30;;;1.07;;
78382;SDS011;67668;52.294;4.692;2023-08-31T08:09:32;5.55;;;0.85;;
78382;SDS011;67668;52.294;4.692;2023-08-31T08:11:57;3.53;;;0.82;;
78382;SDS011;67668;52.294;4.692;2023-08-31T08:14:22;4.60;;;0.70;;
78382;SDS011;67668;52.294;4.692;2023-08-31T08:16:48;5.93;;;0.82;;
78382;SDS011;67668;52.294;4.692;2023-08-31T08:19:13;5.63;;;0.95;;
78382;SDS011;67668;52.294;4.692;2023-08-31T08:21:39;6.55;;;1.70;;
78382;SDS011;67668;52.294;4.692;2023-08-31T08:24:04;11.70;;;1.13;;
78382;SDS011;67668;52.294;4.692;2023-08-31T08:26:30;4.75;;;0.63;;
78382;SDS011;67668;52.294;4.692;2023-08-31T08:28:55;8.17;;;0.90;;
78382;SDS011;67668;52.294;4.692;2023-08-31T08:31:20;8.15;;;1.40;;
78382;SDS011;67668;52.294;4.692;2023-08-31T08:33:46;7.43;;;1.00;;
78382;SDS011;67668;52.294;4.692;2023-08-31T08:36:11;6.78;;;0.98;;
78382;SDS011;67668;52.294;4.692;2023-08-31T08:38:37;6.78;;;0.82;;
78382;SDS011;67668;52.294;4.692;2023-08-31T08:41:05;7.32;;;1.35;;
78382;SDS011;67668;52.294;4.692;2023-08-31T08:43:34;3.58;;;0.88;;
78382;SDS011;67668;52.294;4.692;2023-08-31T08:46:02;7.18;;;1.17;;
78382;SDS011;67668;52.294;4.692;2023-08-31T08:48:30;8.25;;;0.95;;
78382;SDS011;67668;52.294;4.692;2023-08-31T08:50:55;3.72;;;0.77;;
78382;SDS011;67668;52.294;4.692;2023-08-31T08:53:22;6.47;;;1.42;;
78382;SDS011;67668;52.294;4.692;2023-08-31T08:55:47;5.55;;;1.40;;
78382;SDS011;67668;52.294;4.692;2023-08-31T08:58:12;5.43;;;0.87;;
78382;SDS011;67668;52.294;4.692;2023-08-31T09:00:38;4.32;;;0.65;;
78382;SDS011;67668;52.294;4.692;2023-08-31T09:03:05;4.85;;;1.13;;
78382;SDS011;67668;52.294;4.692;2023-08-31T09:05:33;8.70;;;0.93;;
78382;SDS011;67668;52.294;4.692;2023-08-31T09:08:06;4.05;;;0.60;;
78382;SDS011;67668;52.294;4.692;2023-08-31T09:10:42;3.00;;;0.90;;
78382;SDS011;67668;52.294;4.692;2023-08-31T09:13:08;6.03;;;1.17;;
78382;SDS011;67668;52.294;4.692;2023-08-31T09:15:35;9.57;;;1.70;;
78382;SDS011;67668;52.294;4.692;2023-08-31T09:18:03;3.33;;;0.57;;
78382;SDS011;67668;52.294;4.692;2023-08-31T09:20:29;7.25;;;1.05;;
78382;SDS011;67668;52.294;4.692;2023-08-31T09:22:55;5.20;;;0.82;;
78382;SDS011;67668;52.294;4.692;2023-08-31T09:25:21;5.75;;;0.90;;
78382;SDS011;67668;52.294;4.692;2023-08-31T09:27:46;4.70;;;0.93;;
78382;SDS011;67668;52.294;4.692;2023-08-31T09:30:13;6.25;;;0.65;;
78382;SDS011;67668;52.294;4.692;2023-08-31T09:32:38;3.25;;;1.20;;
78382;SDS011;67668;52.294;4.692;2023-08-31T09:35:08;4.07;;;0.70;;
78382;SDS011;67668;52.294;4.692;2023-08-31T09:37:34;4.93;;;0.90;;
78382;SDS011;67668;52.294;4.692;2023-08-31T09:40:03;6.93;;;1.47;;
78382;SDS011;67668;52.294;4.692;2023-08-31T09:42:37;2.80;;;0.30;;
78382;SDS011;67668;52.294;4.692;2023-08-31T09:45:03;5.43;;;0.80;;
78382;SDS011;67668;52.294;4.692;2023-08-31T09:47:29;7.35;;;1.08;;
78382;SDS011;67668;52.294;4.692;2023-08-31T09:49:56;7.38;;;0.80;;
78382;SDS011;67668;52.294;4.692;2023-08-31T09:52:23;5.35;;;0.50;;
78382;SDS011;67668;52.294;4.692;2023-08-31T09:54:49;3.65;;;0.50;;
78382;SDS011;67668;52.294;4.692;2023-08-31T09:57:16;4.25;;;0.60;;
78382;SDS011;67668;52.294;4.692;2023-08-31T09:59:43;4.25;;;0.55;;
78382;SDS011;67668;52.294;4.692;2023-08-31T10:02:09;7.03;;;0.90;;
78382;SDS011;67668;52.294;4.692;2023-08-31T10:04:44;3.40;;;0.60;;
78382;SDS011;67668;52.294;4.692;2023-08-31T10:07:10;2.35;;;0.80;;
78382;SDS011;67668;52.294;4.692;2023-08-31T10:09:36;1.85;;;0.50;;
78382;SDS011;67668;52.294;4.692;2023-08-31T10:12:05;5.72;;;0.90;;
78382;SDS011;67668;52.294;4.692;2023-08-31T10:14:31;2.55;;;0.55;;
78382;SDS011;67668;52.294;4.692;2023-08-31T10:16:57;5.18;;;0.70;;
78382;SDS011;67668;52.294;4.692;2023-08-31T10:19:23;3.78;;;0.70;;
78382;SDS011;67668;52.294;4.692;2023-08-31T10:21:49;4.72;;;1.08;;
78382;SDS011;67668;52.294;4.692;2023-08-31T10:24:15;2.58;;;0.52;;
78382;SDS011;67668;52.294;4.692;2023-08-31T10:26:40;4.13;;;0.73;;
78382;SDS011;67668;52.294;4.692;2023-08-31T10:29:06;7.05;;;0.70;;
78382;SDS011;67668;52.294;4.692;2023-08-31T10:31:33;2.42;;;0.55;;
78382;SDS011;67668;52.294;4.692;2023-08-31T10:36:38;5.23;;;0.90;;
78382;SDS011;67668;52.294;4.692;2023-08-31T10:39:22;4.10;;;0.70;;
78382;SDS011;67668;52.294;4.692;2023-08-31T10:41:54;9.27;;;1.13;;
78382;SDS011;67668;52.294;4.692;2023-08-31T10:44:21;5.63;;;1.02;;
78382;SDS011;67668;52.294;4.692;2023-08-31T10:46:48;3.95;;;0.55;;
78382;SDS011;67668;52.294;4.692;2023-08-31T10:49:15;2.40;;;0.70;;
78382;SDS011;67668;52.294;4.692;2023-08-31T10:52:16;5.20;;;0.50;;
78382;SDS011;67668;52.294;4.692;2023-08-31T10:54:42;4.78;;;0.70;;
78382;SDS011;67668;52.294;4.692;2023-08-31T10:57:07;2.30;;;0.45;;
78382;SDS011;67668;52.294;4.692;2023-08-31T11:02:09;3.67;;;0.70;;
78382;SDS011;67668;52.294;4.692;2023-08-31T11:04:58;2.10;;;0.50;;
78382;SDS011;67668;52.294;4.692;2023-08-31T11:07:26;4.35;;;0.77;;
78382;SDS011;67668;52.294;4.692;2023-08-31T11:10:05;3.28;;;0.55;;
78382;SDS011;67668;52.294;4.692;2023-08-31T11:12:39;4.22;;;1.00;;
78382;SDS011;67668;52.294;4.692;2023-08-31T11:15:05;3.92;;;0.80;;
78382;SDS011;67668;52.294;4.692;2023-08-31T11:17:31;2.65;;;0.65;;
78382;SDS011;67668;52.294;4.692;2023-08-31T11:19:58;3.53;;;0.50;;
78382;SDS011;67668;52.294;4.692;2023-08-31T11:22:23;8.25;;;1.45;;
78382;SDS011;67668;52.294;4.692;2023-08-31T11:24:49;2.15;;;0.75;;
78382;SDS011;67668;52.294;4.692;2023-08-31T11:27:15;4.47;;;0.60;;
78382;SDS011;67668;52.294;4.692;2023-08-31T11:29:44;2.95;;;0.47;;
78382;SDS011;67668;52.294;4.692;2023-08-31T11:32:10;3.35;;;0.40;;
78382;SDS011;67668;52.294;4.692;2023-08-31T11:34:39;2.67;;;0.45;;
78382;SDS011;67668;52.294;4.692;2023-08-31T11:37:06;2.47;;;0.60;;
78382;SDS011;67668;52.294;4.692;2023-08-31T11:39:32;3.88;;;0.50;;
78382;SDS011;67668;52.294;4.692;2023-08-31T11:41:57;5.27;;;0.83;;
78382;SDS011;67668;52.294;4.692;2023-08-31T11:44:23;2.83;;;0.70;;
78382;SDS011;67668;52.294;4.692;2023-08-31T11:46:49;4.80;;;0.50;;
78382;SDS011;67668;52.294;4.692;2023-08-31T11:49:15;3.47;;;0.90;;
78382;SDS011;67668;52.294;4.692;2023-08-31T11:51:42;3.80;;;0.70;;
78382;SDS011;67668;52.294;4.692;2023-08-31T11:54:09;2.40;;;0.30;;
78382;SDS011;67668;52.294;4.692;2023-08-31T11:56:42;1.92;;;0.50;;
78382;SDS011;67668;52.294;4.692;2023-08-31T11:59:09;2.05;;;0.60;;
78382;SDS011;67668;52.294;4.692;2023-08-31T12:01:40;1.70;;;0.50;;
78382;SDS011;67668;52.294;4.692;2023-08-31T12:04:15;3.58;;;0.75;;
78382;SDS011;67668;52.294;4.692;2023-08-31T12:06:46;5.10;;;0.47;;
78382;SDS011;67668;52.294;4.692;2023-08-31T12:09:14;2.50;;;0.45;;
78382;SDS011;67668;52.294;4.692;2023-08-31T12:11:40;2.35;;;0.32;;
78382;SDS011;67668;52.294;4.692;2023-08-31T12:14:18;4.10;;;0.50;;
78382;SDS011;67668;52.294;4.692;2023-08-31T12:16:47;3.78;;;0.40;;
78382;SDS011;67668;52.294;4.692;2023-08-31T12:19:14;3.92;;;0.90;;
78382;SDS011;67668;52.294;4.692;2023-08-31T12:21:41;3.08;;;0.55;;
78382;SDS011;67668;52.294;4.692;2023-08-31T12:24:08;4.63;;;0.73;;
78382;SDS011;67668;52.294;4.692;2023-08-31T12:26:34;1.10;;;0.50;;
78382;SDS011;67668;52.294;4.692;2023-08-31T12:29:01;5.05;;;0.85;;
78382;SDS011;67668;52.294;4.692;2023-08-31T12:31:29;2.22;;;0.55;;
78382;SDS011;67668;52.294;4.692;2023-08-31T12:33:55;3.45;;;0.60;;
78382;SDS011;67668;52.294;4.692;2023-08-31T12:36:20;1.98;;;0.40;;
78382;SDS011;67668;52.294;4.692;2023-08-31T12:38:46;3.97;;;0.40;;
78382;SDS011;67668;52.294;4.692;2023-08-31T12:41:11;2.78;;;0.30;;
78382;SDS011;67668;52.294;4.692;2023-08-31T12:43:37;4.65;;;0.95;;
78382;SDS011;67668;52.294;4.692;2023-08-31T12:46:03;1.55;;;0.85;;
78382;SDS011;67668;52.294;4.692;2023-08-31T12:48:30;2.63;;;0.57;;
78382;SDS011;67668;52.294;4.692;2023-08-31T12:50:58;1.60;;;0.30;;
78382;SDS011;67668;52.294;4.692;2023-08-31T12:53:24;4.27;;;0.50;;
78382;SDS011;67668;52.294;4.692;2023-08-31T12:55:49;2.80;;;0.40;;
78382;SDS011;67668;52.294;4.692;2023-08-31T12:58:15;3.45;;;0.60;;
78382;SDS011;67668;52.294;4.692;2023-08-31T13:00:41;3.17;;;0.50;;
78382;SDS011;67668;52.294;4.692;2023-08-31T13:03:08;1.98;;;0.47;;
78382;SDS011;67668;52.294;4.692;2023-08-31T13:05:33;4.57;;;0.60;;
78382;SDS011;67668;52.294;4.692;2023-08-31T13:07:59;2.10;;;0.40;;
78382;SDS011;67668;52.294;4.692;2023-08-31T13:10:24;1.67;;;0.50;;
78382;SDS011;67668;52.294;4.692;2023-08-31T13:12:50;2.75;;;0.50;;
78382;SDS011;67668;52.294;4.692;2023-08-31T13:15:15;3.92;;;0.60;;
78382;SDS011;67668;52.294;4.692;2023-08-31T13:17:41;4.22;;;0.75;;
78382;SDS011;67668;52.294;4.692;2023-08-31T13:20:06;2.13;;;0.77;;
78382;SDS011;67668;52.294;4.692;2023-08-31T13:22:33;3.28;;;0.63;;
78382;SDS011;67668;52.294;4.692;2023-08-31T13:25:01;3.10;;;0.57;;
78382;SDS011;67668;52.294;4.692;2023-08-31T13:27:26;4.30;;;1.13;;
78382;SDS011;67668;52.294;4.692;2023-08-31T13:29:52;4.57;;;0.70;;
78382;SDS011;67668;52.294;4.692;2023-08-31T13:32:17;4.47;;;0.88;;
78382;SDS011;67668;52.294;4.692;2023-08-31T13:34:43;3.17;;;0.60;;
78382;SDS011;67668;52.294;4.692;2023-08-31T13:37:08;1.23;;;0.50;;
78382;SDS011;67668;52.294;4.692;2023-08-31T13:39:34;5.95;;;1.90;;
78382;SDS011;67668;52.294;4.692;2023-08-31T13:42:05;4.20;;;1.88;;
78382;SDS011;67668;52.294;4.692;2023-08-31T13:44:31;6.90;;;2.47;;
78382;SDS011;67668;52.294;4.692;2023-08-31T13:46:57;4.65;;;1.67;;
78382;SDS011;67668;52.294;4.692;2023-08-31T13:49:22;20.27;;;12.20;;
78382;SDS011;67668;52.294;4.692;2023-08-31T13:51:48;17.85;;;12.75;;
78382;SDS011;67668;52.294;4.692;2023-08-31T13:54:13;7.53;;;4.05;;
78382;SDS011;67668;52.294;4.692;2023-08-31T13:56:39;7.25;;;4.47;;
78382;SDS011;67668;52.294;4.692;2023-08-31T13:59:04;6.43;;;2.38;;
78382;SDS011;67668;52.294;4.692;2023-08-31T14:01:30;7.45;;;3.35;;
78382;SDS011;67668;52.294;4.692;2023-08-31T14:03:55;5.43;;;1.50;;
78382;SDS011;67668;52.294;4.692;2023-08-31T14:06:22;3.90;;;1.48;;
78382;SDS011;67668;52.294;4.692;2023-08-31T14:08:47;2.03;;;1.05;;
78382;SDS011;67668;52.294;4.692;2023-08-31T14:11:13;1.98;;;0.70;;
78382;SDS011;67668;52.294;4.692;2023-08-31T14:13:39;1.92;;;0.73;;
78382;SDS011;67668;52.294;4.692;2023-08-31T14:16:04;2.13;;;0.45;;
78382;SDS011;67668;52.294;4.692;2023-08-31T14:18:30;4.47;;;0.95;;
78382;SDS011;67668;52.294;4.692;2023-08-31T14:20:56;1.90;;;0.57;;
78382;SDS011;67668;52.294;4.692;2023-08-31T14:23:23;1.88;;;0.32;;
78382;SDS011;67668;52.294;4.692;2023-08-31T14:25:49;2.53;;;1.43;;
78382;SDS011;67668;52.294;4.692;2023-08-31T14:28:14;2.95;;;0.80;;
78382;SDS011;67668;52.294;4.692;2023-08-31T14:30:40;1.67;;;0.52;;
78382;SDS011;67668;52.294;4.692;2023-08-31T14:33:05;2.35;;;0.98;;
78382;SDS011;67668;52.294;4.692;2023-08-31T14:35:30;2.23;;;0.83;;
78382;SDS011;67668;52.294;4.692;2023-08-31T14:37:56;3.45;;;0.50;;
78382;SDS011;67668;52.294;4.692;2023-08-31T14:40:22;1.25;;;0.50;;
78382;SDS011;67668;52.294;4.692;2023-08-31T14:42:48;3.95;;;0.80;;
78382;SDS011;67668;52.294;4.692;2023-08-31T14:45:13;2.90;;;0.70;;
78382;SDS011;67668;52.294;4.692;2023-08-31T14:47:40;3.42;;;0.77;;
78382;SDS011;67668;52.294;4.692;2023-08-31T14:50:07;3.17;;;0.63;;
78382;SDS011;67668;52.294;4.692;2023-08-31T14:52:32;3.65;;;0.63;;